Time;durP1;ratioP1;P1;durP2;ratioP2;P2;SDS_P1;SDS_P2;PMS_P1;PMS_P2;Temp;Humidity;BMP_temperature;BMP_pressure;BME280_temperature;BME280_humidity;BME280_pressure;Samples;Min_cycle;Max_cycle;Signal;HPM_P1;HPM_P2
2021/12/07 00:02:12;;;;;;;5.82;5.18;;;;;;;;;;4997640;28;20050;-64
2021/12/07 00:04:39;;;;;;;10.85;9.70;;;;;;;;;;4991755;28;20490;-63
2021/12/07 00:07:06;;;;;;;3.80;3.47;;;;;;;;;;4990823;28;20050;-61
2021/12/07 00:09:33;;;;;;;3.20;2.67;;;;;;;;;;4992382;28;20050;-63
2021/12/07 00:12:04;;;;;;;2.97;2.65;;;;;;;;;;4992938;28;20046;-62
2021/12/07 00:14:39;;;;;;;3.53;2.78;;;;;;;;;;4992739;28;20383;-62
2021/12/07 00:17:07;;;;;;;3.15;2.45;;;;;;;;;;4993096;28;20485;-62
2021/12/07 00:19:34;;;;;;;2.88;2.67;;;;;;;;;;4992729;28;20386;-63
2021/12/07 00:22:03;;;;;;;3.28;2.85;;;;;;;;;;4986438;28;20043;-63
2021/12/07 00:24:30;;;;;;;3.60;2.80;;;;;;;;;;4992807;28;20042;-63
2021/12/07 00:26:58;;;;;;;2.75;2.53;;;;;;;;;;4992527;28;20047;-62
2021/12/07 00:29:25;;;;;;;3.13;2.40;;;;;;;;;;4993165;28;20046;-63
2021/12/07 00:32:08;;;;;;;2.72;2.05;;;;;;;;;;4992690;28;20100;-61
2021/12/07 00:37:03;;;;;;;2.33;2.22;;;;;;;;;;4991908;28;20050;-63
2021/12/07 00:39:30;;;;;;;2.65;2.50;;;;;;;;;;4992776;28;20046;-64
2021/12/07 00:42:00;;;;;;;2.30;2.20;;;;;;;;;;4976755;28;20047;-64
2021/12/07 00:44:28;;;;;;;2.50;2.10;;;;;;;;;;4979259;28;20531;-63
2021/12/07 00:46:55;;;;;;;2.95;2.53;;;;;;;;;;4996812;28;20045;-63
2021/12/07 00:49:23;;;;;;;2.35;2.15;;;;;;;;;;4996710;28;20042;-63
2021/12/07 00:51:50;;;;;;;2.42;2.22;;;;;;;;;;4996395;28;20052;-62
2021/12/07 00:54:17;;;;;;;2.08;1.98;;;;;;;;;;4978577;28;20057;-62
2021/12/07 00:56:44;;;;;;;2.53;2.33;;;;;;;;;;4996537;28;20045;-63
2021/12/07 00:59:11;;;;;;;2.72;2.53;;;;;;;;;;4978876;28;20054;-63
2021/12/07 01:01:38;;;;;;;2.40;2.20;;;;;;;;;;4996561;28;20045;-63
2021/12/07 01:04:06;;;;;;;2.30;2.10;;;;;;;;;;4978545;28;20133;-63
2021/12/07 01:07:03;;;;;;;2.63;2.30;;;;;;;;;;4997072;28;20077;-63
2021/12/07 01:25:55;;;;;;;4.70;3.72;;;;;;;;;;4992327;28;20097;-63
2021/12/07 01:28:33;;;;;;;4.78;3.70;;;;;;;;;;4977878;28;20046;-63
2021/12/07 01:31:29;;;;;;;4.47;3.67;;;;;;;;;;4976723;28;20464;-63
2021/12/07 01:41:39;;;;;;;4.00;3.60;;;;;;;;;;4977618;28;20569;-63
2021/12/07 01:44:26;;;;;;;5.05;4.43;;;;;;;;;;4978430;28;20501;-62
2021/12/07 01:50:15;;;;;;;6.70;4.55;;;;;;;;;;4978364;28;20116;-63
2021/12/07 02:00:56;;;;;;;4.35;3.95;;;;;;;;;;4978239;28;20094;-63
2021/12/07 02:03:24;;;;;;;3.13;2.83;;;;;;;;;;4978046;28;20513;-62
2021/12/07 02:05:52;;;;;;;3.03;2.72;;;;;;;;;;4978077;28;20049;-62
2021/12/07 02:08:19;;;;;;;3.45;2.85;;;;;;;;;;4977904;28;20189;-63
2021/12/07 02:10:47;;;;;;;3.42;2.78;;;;;;;;;;4995234;28;20046;-63
2021/12/07 02:16:06;;;;;;;3.03;2.70;;;;;;;;;;4976284;28;20125;-60
2021/12/07 02:18:33;;;;;;;5.35;3.75;;;;;;;;;;4977747;28;20132;-61
2021/12/07 02:21:24;;;;;;;5.50;3.22;;;;;;;;;;4995255;28;20042;-62
2021/12/07 02:23:59;;;;;;;4.38;3.97;;;;;;;;;;4977941;28;20069;-62
2021/12/07 02:26:26;;;;;;;4.43;3.92;;;;;;;;;;4994910;28;20046;-62
2021/12/07 02:28:53;;;;;;;4.85;3.45;;;;;;;;;;4977695;28;20088;-62
2021/12/07 02:31:21;;;;;;;4.30;3.90;;;;;;;;;;4994839;28;20042;-62
2021/12/07 02:33:50;;;;;;;6.53;4.10;;;;;;;;;;4977589;28;20055;-63
2021/12/07 02:36:18;;;;;;;5.38;4.28;;;;;;;;;;4994914;28;20046;-63
2021/12/07 02:38:45;;;;;;;4.90;3.70;;;;;;;;;;4977470;28;20046;-62
2021/12/07 02:41:12;;;;;;;4.53;4.13;;;;;;;;;;4994945;28;20434;-62
2021/12/07 02:43:39;;;;;;;3.83;3.50;;;;;;;;;;4994543;28;20130;-62
2021/12/07 02:46:06;;;;;;;4.68;4.13;;;;;;;;;;4977402;28;20126;-62
2021/12/07 02:48:33;;;;;;;4.30;3.83;;;;;;;;;;4977003;28;20046;-63
2021/12/07 02:51:02;;;;;;;6.18;4.80;;;;;;;;;;4977640;28;20046;-62
2021/12/07 02:53:33;;;;;;;4.05;3.65;;;;;;;;;;4976832;28;20077;-61
2021/12/07 02:56:04;;;;;;;7.13;5.32;;;;;;;;;;4977445;28;20042;-62
2021/12/07 02:58:35;;;;;;;4.80;4.25;;;;;;;;;;4976925;28;20042;-62
2021/12/07 03:01:11;;;;;;;6.85;4.53;;;;;;;;;;4977144;28;20109;-61
2021/12/07 03:03:51;;;;;;;6.25;4.60;;;;;;;;;;4976675;28;20642;-61
2021/12/07 03:06:32;;;;;;;5.82;4.63;;;;;;;;;;4977048;28;20053;-62
2021/12/07 03:26:01;;;;;;;4.45;4.05;;;;;;;;;;4970407;28;20042;-63
2021/12/07 03:28:34;;;;;;;4.78;4.25;;;;;;;;;;4966208;28;20422;-63
2021/12/07 03:31:01;;;;;;;4.63;4.22;;;;;;;;;;4990579;28;20046;-63
2021/12/07 03:33:30;;;;;;;4.70;4.30;;;;;;;;;;4976224;28;20467;-64
2021/12/07 03:35:58;;;;;;;6.13;4.82;;;;;;;;;;4993463;28;20507;-63
2021/12/07 03:38:25;;;;;;;10.05;8.55;;;;;;;;;;4975780;28;20440;-63
2021/12/07 03:40:52;;;;;;;7.57;5.80;;;;;;;;;;4993474;28;20046;-63
2021/12/07 03:43:20;;;;;;;7.80;5.25;;;;;;;;;;4975650;28;20138;-63
2021/12/07 03:45:47;;;;;;;5.90;4.90;;;;;;;;;;4975984;28;20129;-63
2021/12/07 03:48:15;;;;;;;5.00;4.57;;;;;;;;;;4975582;28;20052;-63
2021/12/07 03:50:42;;;;;;;4.60;4.18;;;;;;;;;;4975788;28;20047;-63
2021/12/07 03:53:10;;;;;;;5.72;5.22;;;;;;;;;;4993194;28;20047;-63
2021/12/07 03:55:37;;;;;;;5.75;4.68;;;;;;;;;;4993419;28;20046;-62
2021/12/07 03:58:05;;;;;;;5.45;4.95;;;;;;;;;;4975442;28;20050;-63
2021/12/07 04:00:34;;;;;;;6.78;4.80;;;;;;;;;;4993230;28;20112;-63
2021/12/07 04:03:07;;;;;;;6.25;5.57;;;;;;;;;;4975684;28;20046;-63
2021/12/07 04:05:36;;;;;;;5.97;5.47;;;;;;;;;;4975334;28;20076;-63
2021/12/07 04:08:04;;;;;;;7.22;5.80;;;;;;;;;;4992847;28;20061;-63
2021/12/07 04:10:31;;;;;;;5.78;4.72;;;;;;;;;;4975370;28;20501;-63
2021/12/07 04:12:58;;;;;;;10.00;5.50;;;;;;;;;;4992974;28;20050;-63
2021/12/07 04:15:26;;;;;;;6.57;4.95;;;;;;;;;;4975235;28;20042;-63
2021/12/07 04:17:53;;;;;;;8.07;5.55;;;;;;;;;;4992873;28;20038;-62
2021/12/07 04:20:20;;;;;;;6.25;5.03;;;;;;;;;;4975410;28;20509;-62
2021/12/07 04:22:48;;;;;;;6.72;4.90;;;;;;;;;;4975748;28;20493;-62
2021/12/07 04:25:16;;;;;;;6.05;4.93;;;;;;;;;;4993113;28;20043;-61
2021/12/07 04:27:44;;;;;;;6.03;5.38;;;;;;;;;;4993315;28;20042;-63
2021/12/07 04:30:18;;;;;;;5.18;4.68;;;;;;;;;;4993324;28;20042;-62
2021/12/07 04:32:45;;;;;;;7.72;5.05;;;;;;;;;;4992922;28;20141;-62
2021/12/07 04:35:16;;;;;;;8.57;6.10;;;;;;;;;;4993184;28;20515;-62
2021/12/07 04:37:44;;;;;;;7.13;5.25;;;;;;;;;;4992419;28;20038;-63
2021/12/07 04:40:15;;;;;;;5.72;5.13;;;;;;;;;;4990885;28;20045;-62
2021/12/07 04:42:43;;;;;;;5.80;5.13;;;;;;;;;;4982852;28;20050;-59
2021/12/07 04:45:18;;;;;;;6.18;4.55;;;;;;;;;;4973935;28;20121;-62
2021/12/07 04:48:00;;;;;;;6.68;5.22;;;;;;;;;;4973304;28;20038;-60
2021/12/07 04:58:09;;;;;;;4.78;4.05;;;;;;;;;;4973046;28;20051;-61
2021/12/07 05:00:36;;;;;;;6.63;5.18;;;;;;;;;;4973789;28;20043;-62
2021/12/07 05:03:08;;;;;;;5.47;4.90;;;;;;;;;;4973510;28;20050;-64
2021/12/07 05:05:36;;;;;;;6.40;5.32;;;;;;;;;;4973217;28;20105;-62
2021/12/07 05:08:07;;;;;;;7.90;6.35;;;;;;;;;;4973394;28;20101;-61
2021/12/07 05:13:29;;;;;;;6.95;5.18;;;;;;;;;;4952795;28;20054;-62
2021/12/07 05:16:07;;;;;;;8.63;5.22;;;;;;;;;;4973415;28;20457;-62
2021/12/07 05:24:14;;;;;;;5.80;5.22;;;;;;;;;;4973585;28;20050;-62
2021/12/07 05:37:56;;;;;;;5.60;5.05;;;;;;;;;;4976030;28;20405;-59
2021/12/07 05:40:33;;;;;;;6.75;5.53;;;;;;;;;;4976788;28;20051;-59
2021/12/07 05:43:01;;;;;;;6.85;5.13;;;;;;;;;;4976133;28;20524;-58
2021/12/07 05:45:32;;;;;;;7.65;5.00;;;;;;;;;;4976264;28;20122;-59
2021/12/07 05:48:00;;;;;;;6.32;5.72;;;;;;;;;;4976156;28;20051;-58
2021/12/07 05:50:29;;;;;;;11.63;10.27;;;;;;;;;;4976206;28;20050;-59
2021/12/07 05:52:57;;;;;;;9.82;8.10;;;;;;;;;;4976195;28;20054;-58
2021/12/07 05:55:24;;;;;;;9.23;8.10;;;;;;;;;;4976382;28;20038;-59
2021/12/07 05:57:51;;;;;;;7.15;6.45;;;;;;;;;;4976349;28;20069;-59
2021/12/07 06:00:25;;;;;;;6.93;6.15;;;;;;;;;;4976104;28;20047;-59
2021/12/07 06:02:57;;;;;;;7.88;7.07;;;;;;;;;;4975937;28;20094;-62
2021/12/07 06:05:26;;;;;;;8.13;6.28;;;;;;;;;;4976061;28;20402;-60
2021/12/07 06:07:54;;;;;;;8.50;7.65;;;;;;;;;;4975891;28;20524;-60
2021/12/07 06:10:21;;;;;;;9.73;6.90;;;;;;;;;;4975837;28;20061;-62
2021/12/07 06:12:48;;;;;;;9.75;8.13;;;;;;;;;;4975929;28;20074;-61
2021/12/07 06:15:19;;;;;;;10.07;8.30;;;;;;;;;;4983536;28;20069;-61
2021/12/07 06:17:46;;;;;;;11.48;8.82;;;;;;;;;;4994542;28;20125;-63
2021/12/07 06:20:14;;;;;;;11.55;8.55;;;;;;;;;;4993881;28;20046;-63
2021/12/07 06:23:01;;;;;;;9.82;8.02;;;;;;;;;;4994097;28;20042;-58
2021/12/07 06:25:29;;;;;;;14.73;10.48;;;;;;;;;;4994879;28;20393;-62
2021/12/07 06:27:56;;;;;;;12.13;8.98;;;;;;;;;;4976415;28;20078;-62
2021/12/07 06:30:23;;;;;;;11.25;9.55;;;;;;;;;;4993228;28;20050;-61
2021/12/07 06:32:50;;;;;;;18.23;12.95;;;;;;;;;;4994117;28;20042;-61
2021/12/07 06:35:16;;;;;;;17.27;12.20;;;;;;;;;;4995086;28;20054;-62
2021/12/07 06:37:44;;;;;;;14.95;11.55;;;;;;;;;;4994540;28;20544;-61
2021/12/07 06:40:16;;;;;;;18.35;13.05;;;;;;;;;;4994490;28;20417;-61
2021/12/07 06:42:43;;;;;;;19.48;11.98;;;;;;;;;;4994611;28;20057;-62
2021/12/07 06:45:10;;;;;;;15.70;12.73;;;;;;;;;;4994494;28;20497;-61
2021/12/07 06:47:46;;;;;;;28.90;13.85;;;;;;;;;;4992094;28;20045;-62
2021/12/07 06:50:14;;;;;;;16.35;11.95;;;;;;;;;;4991838;28;20541;-59
2021/12/07 06:52:43;;;;;;;17.80;13.05;;;;;;;;;;4986745;28;20043;-60
2021/12/07 06:55:10;;;;;;;18.33;12.52;;;;;;;;;;4989742;28;20047;-59
2021/12/07 06:57:37;;;;;;;16.70;11.05;;;;;;;;;;4990427;28;20042;-61
2021/12/07 07:00:09;;;;;;;17.50;11.25;;;;;;;;;;4988802;28;20057;-60
2021/12/07 07:02:36;;;;;;;17.90;12.88;;;;;;;;;;4990370;28;20042;-59
2021/12/07 07:05:04;;;;;;;15.32;11.45;;;;;;;;;;4989020;28;20036;-60
2021/12/07 07:07:33;;;;;;;18.73;13.73;;;;;;;;;;4989993;28;20437;-63
2021/12/07 07:10:00;;;;;;;13.95;11.70;;;;;;;;;;4990389;28;20055;-61
2021/12/07 07:12:27;;;;;;;16.95;12.48;;;;;;;;;;4991392;28;20053;-61
2021/12/07 07:14:54;;;;;;;21.83;13.23;;;;;;;;;;4991244;28;20065;-61
2021/12/07 07:17:21;;;;;;;18.70;10.80;;;;;;;;;;4988754;28;20050;-61
2021/12/07 07:19:47;;;;;;;14.60;12.23;;;;;;;;;;4986454;28;20043;-60
2021/12/07 07:22:14;;;;;;;17.10;12.65;;;;;;;;;;4993163;28;20773;-61
2021/12/07 07:24:43;;;;;;;23.63;14.25;;;;;;;;;;4992423;28;20050;-61
2021/12/07 07:27:10;;;;;;;17.35;12.30;;;;;;;;;;4991795;28;20064;-61
2021/12/07 07:29:36;;;;;;;16.33;11.25;;;;;;;;;;4993180;28;20050;-61
2021/12/07 07:32:04;;;;;;;21.67;12.82;;;;;;;;;;4993273;28;20404;-61
2021/12/07 07:34:31;;;;;;;16.25;12.35;;;;;;;;;;4992154;28;20035;-60
2021/12/07 07:36:58;;;;;;;17.50;12.50;;;;;;;;;;4990738;28;20046;-61
2021/12/07 07:39:25;;;;;;;17.58;12.63;;;;;;;;;;4991675;28;20064;-61
2021/12/07 07:41:52;;;;;;;16.83;10.68;;;;;;;;;;4991728;28;20137;-60
2021/12/07 07:44:18;;;;;;;16.27;11.10;;;;;;;;;;4991262;28;20046;-61
2021/12/07 07:46:47;;;;;;;14.52;11.40;;;;;;;;;;4973937;28;20088;-61
2021/12/07 07:49:14;;;;;;;15.05;11.60;;;;;;;;;;4992148;28;20042;-61
2021/12/07 07:51:41;;;;;;;16.60;12.05;;;;;;;;;;4985989;28;20049;-61
2021/12/07 07:54:08;;;;;;;15.57;12.30;;;;;;;;;;4986891;28;20057;-61
2021/12/07 07:56:36;;;;;;;18.33;12.07;;;;;;;;;;4986945;28;20047;-62
2021/12/07 07:59:04;;;;;;;17.90;13.30;;;;;;;;;;4986447;28;20053;-62
2021/12/07 08:01:31;;;;;;;15.73;11.38;;;;;;;;;;4986776;28;20042;-62
2021/12/07 08:04:00;;;;;;;14.18;11.80;;;;;;;;;;4992123;28;20109;-62
2021/12/07 08:06:28;;;;;;;26.30;13.50;;;;;;;;;;4992584;28;20042;-60
2021/12/07 08:08:56;;;;;;;24.63;13.18;;;;;;;;;;4988552;28;20077;-61
2021/12/07 08:11:23;;;;;;;21.52;10.77;;;;;;;;;;4989187;28;20050;-61
2021/12/07 08:13:54;;;;;;;21.17;12.55;;;;;;;;;;4989000;28;20054;-60
2021/12/07 08:16:24;;;;;;;19.77;12.55;;;;;;;;;;4983545;28;20179;-60
2021/12/07 08:18:52;;;;;;;25.08;12.90;;;;;;;;;;4991381;28;20096;-61
2021/12/07 08:21:22;;;;;;;21.27;11.20;;;;;;;;;;4987415;28;20057;-60
2021/12/07 08:23:49;;;;;;;25.92;11.95;;;;;;;;;;4992273;28;20081;-61
2021/12/07 08:26:20;;;;;;;19.45;11.60;;;;;;;;;;4988419;28;20039;-59
2021/12/07 08:28:53;;;;;;;17.52;10.75;;;;;;;;;;4991712;28;20405;-61
2021/12/07 08:31:20;;;;;;;22.20;14.07;;;;;;;;;;4991451;28;20413;-63
2021/12/07 08:33:48;;;;;;;20.10;14.40;;;;;;;;;;4969380;28;20039;-61
2021/12/07 08:36:15;;;;;;;21.60;13.32;;;;;;;;;;4992721;28;20039;-60
2021/12/07 08:38:43;;;;;;;15.52;10.82;;;;;;;;;;4991351;28;20074;-60
2021/12/07 08:41:11;;;;;;;15.98;11.20;;;;;;;;;;4992416;28;20050;-60
2021/12/07 08:43:40;;;;;;;14.13;11.43;;;;;;;;;;4991359;28;20081;-60
2021/12/07 08:46:12;;;;;;;27.27;16.42;;;;;;;;;;4991750;28;20042;-62
2021/12/07 08:48:41;;;;;;;90.25;46.53;;;;;;;;;;4984034;28;20042;-59
2021/12/07 08:51:10;;;;;;;93.70;43.00;;;;;;;;;;4992274;28;20053;-60
2021/12/07 08:53:44;;;;;;;57.63;28.85;;;;;;;;;;4992395;28;20118;-59
2021/12/07 09:01:47;;;;;;;24.83;16.83;;;;;;;;;;4992298;28;20042;-60
2021/12/07 09:04:17;;;;;;;27.88;19.75;;;;;;;;;;4996022;28;20035;-58
2021/12/07 09:06:45;;;;;;;25.15;17.13;;;;;;;;;;4995262;28;20050;-57
2021/12/07 09:09:12;;;;;;;28.52;19.60;;;;;;;;;;4994895;28;20082;-58
2021/12/07 09:11:40;;;;;;;22.00;16.20;;;;;;;;;;4995600;28;20043;-58
2021/12/07 09:14:14;;;;;;;27.10;19.38;;;;;;;;;;4995609;28;20038;-58
2021/12/07 09:16:42;;;;;;;79.68;46.65;;;;;;;;;;4995205;28;20485;-59
2021/12/07 09:19:10;;;;;;;76.18;51.10;;;;;;;;;;4995184;28;20046;-59
2021/12/07 09:21:37;;;;;;;77.45;51.03;;;;;;;;;;4994753;28;20089;-59
2021/12/07 09:24:04;;;;;;;59.90;39.78;;;;;;;;;;4995335;28;20039;-58
2021/12/07 09:26:32;;;;;;;39.22;22.35;;;;;;;;;;4994528;28;20038;-59
2021/12/07 09:28:59;;;;;;;27.45;20.33;;;;;;;;;;4973814;28;20101;-59
2021/12/07 09:31:26;;;;;;;26.52;21.70;;;;;;;;;;4995275;28;20042;-60
2021/12/07 09:33:54;;;;;;;28.98;17.75;;;;;;;;;;4994387;28;20034;-61
2021/12/07 09:36:22;;;;;;;22.55;16.70;;;;;;;;;;4993771;28;20050;-60
2021/12/07 09:38:54;;;;;;;17.60;13.43;;;;;;;;;;4991219;28;20093;-60
2021/12/07 09:41:21;;;;;;;17.75;13.48;;;;;;;;;;4995024;28;20493;-59
2021/12/07 09:43:49;;;;;;;12.93;10.00;;;;;;;;;;4994201;28;20038;-59
2021/12/07 09:46:16;;;;;;;31.75;11.95;;;;;;;;;;4993386;28;20050;-59
2021/12/07 09:48:44;;;;;;;10.48;8.30;;;;;;;;;;4993155;28;20045;-59
2021/12/07 09:51:16;;;;;;;15.38;8.68;;;;;;;;;;4993746;28;20566;-60
2021/12/07 09:53:48;;;;;;;11.70;9.02;;;;;;;;;;4994940;28;20073;-60
2021/12/07 09:56:18;;;;;;;12.85;10.05;;;;;;;;;;4994852;28;20042;-62
2021/12/07 09:58:46;;;;;;;12.63;9.05;;;;;;;;;;4993915;28;20133;-61
2021/12/07 10:01:13;;;;;;;13.73;10.05;;;;;;;;;;4976338;28;20047;-59
2021/12/07 10:03:42;;;;;;;13.13;10.13;;;;;;;;;;4994637;28;20077;-59
2021/12/07 10:06:09;;;;;;;14.13;9.80;;;;;;;;;;4993582;28;20042;-60
2021/12/07 10:08:36;;;;;;;16.23;10.80;;;;;;;;;;4992902;28;20441;-59
2021/12/07 10:11:08;;;;;;;14.43;10.55;;;;;;;;;;4993893;28;20042;-59
2021/12/07 10:13:35;;;;;;;11.95;9.95;;;;;;;;;;4989920;28;20428;-60
2021/12/07 10:16:05;;;;;;;13.52;11.07;;;;;;;;;;4994313;28;20180;-59
2021/12/07 10:18:36;;;;;;;11.95;9.73;;;;;;;;;;4993320;28;20091;-60
2021/12/07 10:21:14;;;;;;;16.30;9.10;;;;;;;;;;4994413;28;20046;-61
2021/12/07 10:23:49;;;;;;;11.82;9.82;;;;;;;;;;4994186;28;20042;-59
2021/12/07 10:26:28;;;;;;;10.82;8.65;;;;;;;;;;4994814;28;20042;-60
2021/12/07 10:28:59;;;;;;;11.32;9.13;;;;;;;;;;4994143;28;20046;-60
2021/12/07 10:31:47;;;;;;;9.27;8.23;;;;;;;;;;4993433;28;20069;-60
2021/12/07 10:34:24;;;;;;;11.68;9.18;;;;;;;;;;4986940;28;20053;-62
2021/12/07 10:37:06;;;;;;;12.90;7.07;;;;;;;;;;4994091;28;20049;-62
2021/12/07 10:39:38;;;;;;;8.13;6.68;;;;;;;;;;4993941;28;20054;-60
2021/12/07 10:42:11;;;;;;;8.00;6.85;;;;;;;;;;4992759;28;20038;-61
2021/12/07 10:45:06;;;;;;;8.35;5.82;;;;;;;;;;4993414;28;20046;-61
2021/12/07 10:47:33;;;;;;;19.73;7.40;;;;;;;;;;4993362;28;20054;-60
2021/12/07 10:50:04;;;;;;;8.27;7.05;;;;;;;;;;4992913;28;20126;-60
2021/12/07 10:52:34;;;;;;;6.97;6.18;;;;;;;;;;4993349;28;20046;-60
2021/12/07 10:55:16;;;;;;;9.77;6.07;;;;;;;;;;4990695;28;20051;-60
2021/12/07 10:57:53;;;;;;;9.85;6.30;;;;;;;;;;4993246;28;20052;-61
2021/12/07 11:00:36;;;;;;;11.50;7.38;;;;;;;;;;4992834;28;20378;-60
2021/12/07 11:03:07;;;;;;;10.23;6.55;;;;;;;;;;4992944;28;20046;-61
2021/12/07 11:05:54;;;;;;;7.90;6.32;;;;;;;;;;4993001;28;20035;-61
2021/12/07 11:08:28;;;;;;;10.63;6.75;;;;;;;;;;4992027;28;20466;-60
2021/12/07 11:10:56;;;;;;;7.43;6.63;;;;;;;;;;4993484;28;20390;-59
2021/12/07 11:13:34;;;;;;;10.93;7.75;;;;;;;;;;4992718;28;20046;-62
2021/12/07 11:16:10;;;;;;;9.73;7.47;;;;;;;;;;4993650;28;20093;-61
2021/12/07 11:18:41;;;;;;;;;;;;;;;;;;4993294;28;20494;-63
2021/12/07 11:21:14;;;;;;;10.88;7.80;;;;;;;;;;4993297;28;19922;-62
2021/12/07 11:23:45;;;;;;;10.38;7.50;;;;;;;;;;4993339;28;20129;-60
2021/12/07 11:31:37;;;;;;;12.77;8.40;;;;;;;;;;4991930;28;20042;-62
2021/12/07 11:34:11;;;;;;;11.30;8.95;;;;;;;;;;4993276;28;20043;-61
2021/12/07 11:36:43;;;;;;;11.40;7.95;;;;;;;;;;4993031;28;20057;-60
2021/12/07 11:39:35;;;;;;;14.20;8.32;;;;;;;;;;4991907;28;20046;-61
2021/12/07 11:42:16;;;;;;;12.43;8.50;;;;;;;;;;4983658;28;20046;-60
2021/12/07 11:44:50;;;;;;;16.80;9.52;;;;;;;;;;4992427;28;20141;-60
2021/12/07 11:47:43;;;;;;;13.95;8.30;;;;;;;;;;4992913;28;20046;-61
2021/12/07 11:50:30;;;;;;;11.43;8.70;;;;;;;;;;4990483;28;20042;-63
2021/12/07 11:53:07;;;;;;;9.73;7.95;;;;;;;;;;4990876;28;20096;-62
2021/12/07 11:55:36;;;;;;;12.63;8.20;;;;;;;;;;4983391;28;20038;-61
2021/12/07 11:58:07;;;;;;;14.00;10.40;;;;;;;;;;4991021;28;20046;-62
2021/12/07 12:00:42;;;;;;;12.63;10.10;;;;;;;;;;4983477;28;20041;-59
2021/12/07 12:03:12;;;;;;;12.95;10.13;;;;;;;;;;4990470;28;20070;-60
2021/12/07 12:05:42;;;;;;;12.95;10.40;;;;;;;;;;4992730;28;20050;-60
2021/12/07 12:08:11;;;;;;;14.05;9.70;;;;;;;;;;4991284;28;20449;-59
2021/12/07 12:10:40;;;;;;;11.50;9.60;;;;;;;;;;4987805;28;20051;-60
2021/12/07 12:13:17;;;;;;;18.17;10.25;;;;;;;;;;4991223;28;20497;-58
2021/12/07 12:16:02;;;;;;;13.70;10.68;;;;;;;;;;4992403;28;20047;-60
2021/12/07 12:18:38;;;;;;;17.38;11.65;;;;;;;;;;4987098;28;20509;-61
2021/12/07 12:21:16;;;;;;;13.05;10.60;;;;;;;;;;4987851;28;20054;-59
2021/12/07 12:24:02;;;;;;;12.50;10.27;;;;;;;;;;4989259;28;20046;-61
2021/12/07 12:26:34;;;;;;;18.67;10.82;;;;;;;;;;4989906;28;20057;-62
2021/12/07 12:29:02;;;;;;;16.75;12.35;;;;;;;;;;4988793;28;20035;-62
2021/12/07 12:31:51;;;;;;;13.93;11.75;;;;;;;;;;4966221;28;20042;-59
2021/12/07 12:34:33;;;;;;;16.42;11.68;;;;;;;;;;4984746;28;20457;-58
2021/12/07 12:37:16;;;;;;;14.80;10.82;;;;;;;;;;4992129;28;20549;-60
2021/12/07 12:39:52;;;;;;;14.30;11.80;;;;;;;;;;4988794;28;20057;-61
2021/12/07 12:42:30;;;;;;;14.55;10.73;;;;;;;;;;4996210;28;20050;-59
2021/12/07 12:45:34;;;;;;;16.00;11.55;;;;;;;;;;5000630;28;20074;-68
2021/12/07 12:48:09;;;;;;;22.85;13.23;;;;;;;;;;5001609;28;20053;-69
2021/12/07 12:50:43;;;;;;;19.95;11.85;;;;;;;;;;4989064;28;20072;-68
2021/12/07 12:53:17;;;;;;;16.67;11.98;;;;;;;;;;4993566;28;20482;-70
2021/12/07 12:55:56;;;;;;;15.45;13.35;;;;;;;;;;5004050;28;20050;-69
2021/12/07 12:58:29;;;;;;;17.67;12.55;;;;;;;;;;5002175;28;20504;-65
2021/12/07 13:01:03;;;;;;;20.42;11.73;;;;;;;;;;4994955;28;20050;-67
2021/12/07 13:04:09;;;;;;;15.95;11.73;;;;;;;;;;4996591;28;20053;-68
2021/12/07 13:06:52;;;;;;;;;;;;;;;;;;5000101;28;20053;-59
2021/12/07 13:09:19;;;;;;;14.07;11.32;;;;;;;;;;5000981;28;19921;-67
2021/12/07 13:11:56;;;;;;;16.77;11.88;;;;;;;;;;5000262;28;20108;-65
2021/12/07 13:14:23;;;;;;;17.25;11.95;;;;;;;;;;4993695;28;20081;-61
2021/12/07 13:16:59;;;;;;;16.27;12.30;;;;;;;;;;4996988;28;20034;-62
2021/12/07 13:19:28;;;;;;;17.52;12.43;;;;;;;;;;4995440;28;20150;-65
2021/12/07 13:22:03;;;;;;;17.05;13.55;;;;;;;;;;4998097;28;20051;-62
2021/12/07 13:24:37;;;;;;;16.77;12.20;;;;;;;;;;4994094;28;20039;-59
2021/12/07 13:27:11;;;;;;;17.98;11.77;;;;;;;;;;4990495;28;20089;-59
2021/12/07 13:29:47;;;;;;;14.80;11.60;;;;;;;;;;4992596;28;20043;-60
2021/12/07 13:32:14;;;;;;;17.10;12.70;;;;;;;;;;4991349;28;20047;-61
2021/12/07 13:34:41;;;;;;;14.73;11.18;;;;;;;;;;4968432;28;20051;-59
2021/12/07 13:37:13;;;;;;;18.95;12.93;;;;;;;;;;4989578;28;20104;-61
2021/12/07 13:39:51;;;;;;;17.08;12.82;;;;;;;;;;4991141;28;20065;-60
2021/12/07 13:42:18;;;;;;;15.65;12.43;;;;;;;;;;4990670;28;20057;-61
2021/12/07 13:44:46;;;;;;;17.90;12.70;;;;;;;;;;4989826;28;20126;-62
2021/12/07 13:47:25;;;;;;;15.77;12.40;;;;;;;;;;4987196;28;20050;-64
2021/12/07 13:49:56;;;;;;;14.93;12.25;;;;;;;;;;4993467;28;20042;-60
2021/12/07 13:52:25;;;;;;;20.92;13.43;;;;;;;;;;5002134;28;20409;-62
2021/12/07 13:54:55;;;;;;;17.95;11.77;;;;;;;;;;4990113;28;20496;-62
2021/12/07 13:57:25;;;;;;;15.50;12.40;;;;;;;;;;4971964;28;20042;-62
2021/12/07 14:00:08;;;;;;;14.40;12.05;;;;;;;;;;4998269;28;20053;-60
2021/12/07 14:02:40;;;;;;;17.30;12.90;;;;;;;;;;5004018;28;20065;-60
2021/12/07 14:05:19;;;;;;;17.10;11.93;;;;;;;;;;4994228;28;20493;-61
2021/12/07 14:07:47;;;;;;;14.93;12.57;;;;;;;;;;4990935;28;20047;-62
2021/12/07 14:10:28;;;;;;;21.70;12.32;;;;;;;;;;5000403;28;20478;-64
2021/12/07 14:12:56;;;;;;;19.08;14.48;;;;;;;;;;5003848;28;20054;-63
2021/12/07 14:15:24;;;;;;;23.45;15.50;;;;;;;;;;4991590;28;20536;-63
2021/12/07 14:17:58;;;;;;;20.35;15.07;;;;;;;;;;4996701;28;20502;-60
2021/12/07 14:20:33;;;;;;;20.70;15.57;;;;;;;;;;4992891;28;20038;-61
2021/12/07 14:23:13;;;;;;;16.33;12.25;;;;;;;;;;4993235;28;20054;-59
2021/12/07 14:26:01;;;;;;;20.60;13.65;;;;;;;;;;4992252;28;20057;-60
2021/12/07 14:28:46;;;;;;;19.85;14.13;;;;;;;;;;4989486;28;20038;-61
2021/12/07 14:31:18;;;;;;;;;;;;;;;;;;4991684;28;20412;-61
2021/12/07 14:33:45;;;;;;;21.83;15.32;;;;;;;;;;4990738;28;19988;-62
2021/12/07 14:36:15;;;;;;;16.80;13.25;;;;;;;;;;4991749;28;20046;-66
2021/12/07 14:38:46;;;;;;;19.88;17.77;;;;;;;;;;4991049;28;20041;-64
2021/12/07 14:41:15;;;;;;;18.02;13.13;;;;;;;;;;4991442;28;20069;-63
2021/12/07 14:43:42;;;;;;;17.00;15.20;;;;;;;;;;4977826;28;20038;-61
2021/12/07 14:46:12;;;;;;;21.52;17.45;;;;;;;;;;4993548;28;20045;-60
2021/12/07 14:48:40;;;;;;;17.88;13.48;;;;;;;;;;4991470;28;20045;-61
2021/12/07 14:51:16;;;;;;;18.70;13.25;;;;;;;;;;4987313;28;20043;-60
2021/12/07 14:53:50;;;;;;;15.60;12.13;;;;;;;;;;4988950;28;20047;-64
2021/12/07 14:56:19;;;;;;;21.02;15.25;;;;;;;;;;4994475;28;20049;-64
2021/12/07 14:58:48;;;;;;;21.80;14.65;;;;;;;;;;4998370;28;20038;-60
2021/12/07 15:01:21;;;;;;;17.98;14.55;;;;;;;;;;4998868;28;20050;-64
2021/12/07 15:03:57;;;;;;;19.02;14.40;;;;;;;;;;4992429;28;20157;-63
2021/12/07 15:06:27;;;;;;;18.55;13.70;;;;;;;;;;4996408;28;20050;-62
2021/12/07 15:08:57;;;;;;;19.88;13.20;;;;;;;;;;4994446;28;20074;-65
2021/12/07 15:11:49;;;;;;;14.98;11.10;;;;;;;;;;4997787;28;20042;-63
2021/12/07 15:14:21;;;;;;;16.23;11.20;;;;;;;;;;4995026;28;20057;-62
2021/12/07 15:16:51;;;;;;;17.67;13.00;;;;;;;;;;4992951;28;20051;-63
2021/12/07 15:19:19;;;;;;;17.67;13.13;;;;;;;;;;4995661;28;20065;-61
2021/12/07 15:21:47;;;;;;;18.13;13.43;;;;;;;;;;5003678;28;20072;-62
2021/12/07 15:24:19;;;;;;;22.25;18.35;;;;;;;;;;4994458;28;20043;-63
2021/12/07 15:26:48;;;;;;;21.02;17.35;;;;;;;;;;4993450;28;20038;-61
2021/12/07 15:29:23;;;;;;;29.20;17.27;;;;;;;;;;4996937;28;20045;-60
2021/12/07 15:31:54;;;;;;;21.85;14.52;;;;;;;;;;4999798;28;20050;-63
2021/12/07 15:34:23;;;;;;;17.45;11.50;;;;;;;;;;4994933;28;20078;-62
2021/12/07 15:37:05;;;;;;;15.38;12.05;;;;;;;;;;4994713;28;20042;-64
2021/12/07 15:39:38;;;;;;;27.85;18.15;;;;;;;;;;4991511;28;20516;-65
2021/12/07 15:42:11;;;;;;;20.10;13.85;;;;;;;;;;4991996;28;20105;-64
2021/12/07 15:44:40;;;;;;;18.10;11.48;;;;;;;;;;4997734;28;20497;-67
2021/12/07 15:47:12;;;;;;;17.85;12.50;;;;;;;;;;4994333;28;20046;-64
2021/12/07 15:49:46;;;;;;;19.70;17.75;;;;;;;;;;4998564;28;20042;-66
2021/12/07 15:52:15;;;;;;;16.95;13.75;;;;;;;;;;5001379;28;20500;-61
2021/12/07 15:55:08;;;;;;;22.60;17.13;;;;;;;;;;4990079;28;20564;-66
2021/12/07 15:57:42;;;;;;;27.73;20.23;;;;;;;;;;4963816;28;20046;-66
2021/12/07 16:00:11;;;;;;;19.17;15.10;;;;;;;;;;4994907;28;20052;-66
2021/12/07 16:02:38;;;;;;;17.92;13.27;;;;;;;;;;4999930;28;20126;-68
2021/12/07 16:05:10;;;;;;;17.40;11.70;;;;;;;;;;4994982;28;20046;-63
2021/12/07 16:07:46;;;;;;;23.23;19.35;;;;;;;;;;4976922;28;20034;-62
2021/12/07 16:10:25;;;;;;;30.10;21.95;;;;;;;;;;4989457;28;20054;-64
2021/12/07 16:13:05;;;;;;;22.73;15.10;;;;;;;;;;5000132;28;20069;-64
2021/12/07 16:15:32;;;;;;;20.65;15.30;;;;;;;;;;5001013;28;20512;-66
2021/12/07 16:18:00;;;;;;;21.20;15.45;;;;;;;;;;4989627;28;20041;-65
2021/12/07 16:20:27;;;;;;;17.45;13.98;;;;;;;;;;4996999;28;20052;-67
2021/12/07 16:22:54;;;;;;;17.10;14.18;;;;;;;;;;4993250;28;20046;-65
2021/12/07 16:25:21;;;;;;;24.67;14.93;;;;;;;;;;4997696;28;20046;-64
2021/12/07 16:27:48;;;;;;;15.68;12.20;;;;;;;;;;4992468;28;20081;-63
2021/12/07 16:30:15;;;;;;;17.83;11.98;;;;;;;;;;4994497;28;20420;-66